Time;durP1;ratioP1;P1;durP2;ratioP2;P2;SDS_P1;SDS_P2;PMS_P1;PMS_P2;Temp;Humidity;BMP_temperature;BMP_pressure;BME280_temperature;BME280_humidity;BME280_pressure;Samples;Min_cycle;Max_cycle;Signal;HPM_P1;HPM_P2
2022/09/18 00:01:33;;;;;;;4.33;1.20;;;16.50;88.10;;;;;;4978181;28;20470;-72
2022/09/18 00:04:02;;;;;;;2.57;1.30;;;16.50;88.20;;;;;;4981425;28;20502;-72
2022/09/18 00:06:34;;;;;;;2.50;1.43;;;16.50;88.40;;;;;;4979026;28;20526;-72
2022/09/18 00:09:04;;;;;;;5.50;1.73;;;16.50;88.30;;;;;;4950505;28;20449;-72
2022/09/18 00:11:35;;;;;;;6.33;1.10;;;16.50;88.40;;;;;;4964462;28;20755;-73
2022/09/18 00:14:05;;;;;;;2.30;1.27;;;16.50;88.40;;;;;;4995078;28;20405;-73
2022/09/18 00:16:33;;;;;;;2.47;1.07;;;16.50;88.40;;;;;;4993478;28;20419;-72
2022/09/18 00:19:00;;;;;;;4.13;1.57;;;16.50;88.50;;;;;;4977646;28;20905;-72
2022/09/18 00:21:30;;;;;;;7.10;1.40;;;16.50;88.50;;;;;;4984350;28;20460;-72
2022/09/18 00:23:59;;;;;;;4.80;1.10;;;16.50;88.60;;;;;;4973849;28;20454;-73
2022/09/18 00:26:34;;;;;;;3.67;1.00;;;16.50;88.50;;;;;;4981110;28;20842;-73
2022/09/18 00:29:00;;;;;;;3.80;1.20;;;16.50;88.60;;;;;;4986816;28;20435;-72
2022/09/18 00:31:31;;;;;;;3.23;1.20;;;16.50;88.60;;;;;;4984829;28;20423;-74
2022/09/18 00:34:01;;;;;;;2.00;1.07;;;16.50;88.70;;;;;;4957941;28;21145;-74
2022/09/18 00:36:31;;;;;;;3.03;1.30;;;16.50;88.60;;;;;;4982109;28;20489;-73
2022/09/18 00:38:58;;;;;;;2.20;1.20;;;16.50;88.50;;;;;;4961533;28;20442;-73
2022/09/18 00:41:30;;;;;;;2.43;0.93;;;16.50;88.60;;;;;;4986880;28;20580;-73
2022/09/18 00:44:28;;;;;;;2.03;1.33;;;16.50;88.70;;;;;;4973579;28;20853;-73
2022/09/18 00:47:03;;;;;;;3.37;1.40;;;16.50;88.70;;;;;;4975693;28;20442;-73
2022/09/18 00:49:31;;;;;;;3.53;1.33;;;16.50;88.70;;;;;;4947733;28;20428;-73
2022/09/18 00:51:59;;;;;;;3.43;1.20;;;16.40;88.80;;;;;;4982821;28;20443;-73
2022/09/18 00:54:30;;;;;;;2.70;1.17;;;16.40;88.70;;;;;;4978916;28;20829;-73
2022/09/18 00:57:02;;;;;;;2.90;1.03;;;16.40;88.70;;;;;;4977212;28;20427;-73
2022/09/18 00:59:34;;;;;;;2.10;1.17;;;16.40;88.80;;;;;;4987759;28;20472;-73
2022/09/18 01:02:01;;;;;;;3.50;1.10;;;16.40;88.80;;;;;;4973595;28;20459;-73
2022/09/18 01:04:30;;;;;;;3.77;1.30;;;16.40;88.80;;;;;;4970293;28;20443;-73
2022/09/18 01:07:05;;;;;;;3.03;1.00;;;16.40;88.80;;;;;;4961018;28;20421;-73
2022/09/18 01:09:56;;;;;;;1.60;1.13;;;16.40;88.80;;;;;;4938957;28;20459;-73
2022/09/18 01:12:36;;;;;;;2.53;1.10;;;16.40;88.80;;;;;;4980580;28;20448;-73
2022/09/18 01:15:23;;;;;;;2.40;1.13;;;16.40;88.90;;;;;;4977362;28;20493;-73
2022/09/18 01:18:10;;;;;;;7.77;1.40;;;16.40;88.90;;;;;;4991229;28;20821;-73
2022/09/18 01:21:12;;;;;;;3.30;1.43;;;16.40;89.00;;;;;;4992534;28;20433;-73
2022/09/18 01:24:02;;;;;;;1.60;0.93;;;16.40;89.20;;;;;;4965368;28;20425;-73
2022/09/18 01:26:59;;;;;;;2.33;1.20;;;16.40;89.20;;;;;;4963083;28;20438;-73
2022/09/18 01:29:51;;;;;;;3.07;1.73;;;16.40;89.30;;;;;;4938127;29;20423;-73
2022/09/18 01:32:32;;;;;;;1.90;1.20;;;16.40;89.40;;;;;;4972549;28;20449;-73
2022/09/18 01:35:15;;;;;;;3.77;1.10;;;16.40;89.60;;;;;;4956379;28;20886;-74
2022/09/18 01:37:45;;;;;;;5.57;1.23;;;16.40;89.60;;;;;;4969867;28;20421;-73
2022/09/18 01:40:49;;;;;;;2.60;0.87;;;16.30;89.60;;;;;;4988122;28;20586;-74
2022/09/18 01:43:19;;;;;;;4.40;1.07;;;16.30;89.60;;;;;;4947681;28;20485;-73
2022/09/18 01:45:50;;;;;;;5.27;1.23;;;16.30;89.60;;;;;;4989233;28;20460;-73
2022/09/18 01:48:37;;;;;;;1.77;0.90;;;16.30;89.70;;;;;;4938316;29;20447;-73
2022/09/18 01:51:28;;;;;;;3.47;1.53;;;16.30;89.60;;;;;;4973763;28;20801;-73
2022/09/18 01:54:11;;;;;;;4.10;1.27;;;16.30;89.70;;;;;;4990343;28;20535;-73
2022/09/18 01:56:51;;;;;;;3.43;1.63;;;16.30;89.80;;;;;;4976352;28;21011;-73
2022/09/18 01:59:36;;;;;;;5.40;1.60;;;16.30;89.90;;;;;;4956309;28;20461;-73
2022/09/18 02:02:16;;;;;;;3.27;1.37;;;16.30;90.00;;;;;;4966428;28;20470;-74
2022/09/18 02:04:51;;;;;;;4.67;1.43;;;16.30;90.40;;;;;;4973857;28;20956;-74
2022/09/18 02:07:29;;;;;;;1.80;0.80;;;16.30;90.00;;;;;;4976818;28;20479;-74
2022/09/18 02:09:59;;;;;;;2.43;0.90;;;16.30;90.00;;;;;;4956101;28;20950;-74
2022/09/18 02:12:28;;;;;;;2.57;1.30;;;16.30;89.90;;;;;;4964263;28;20504;-74
2022/09/18 02:15:04;;;;;;;3.10;1.00;;;16.30;89.90;;;;;;4956848;28;20458;-73
2022/09/18 02:17:51;;;;;;;1.90;0.90;;;16.30;89.90;;;;;;4980859;28;20517;-74
2022/09/18 02:20:29;;;;;;;1.53;0.80;;;16.30;90.00;;;;;;4964542;28;20466;-74
2022/09/18 02:22:59;;;;;;;2.00;1.20;;;16.30;90.10;;;;;;4979367;28;20624;-74
2022/09/18 02:25:34;;;;;;;3.43;1.00;;;16.30;90.10;;;;;;4953085;28;20451;-74
2022/09/18 02:28:04;;;;;;;1.70;1.00;;;16.30;90.10;;;;;;4974754;28;20413;-74
2022/09/18 02:30:33;;;;;;;3.40;1.20;;;16.30;90.20;;;;;;4975795;28;20512;-75
2022/09/18 02:33:01;;;;;;;4.37;1.90;;;16.30;90.20;;;;;;4959934;28;20478;-74
2022/09/18 02:35:42;;;;;;;2.23;0.93;;;16.30;90.30;;;;;;4952820;28;20448;-74
2022/09/18 02:38:37;;;;;;;3.10;1.10;;;16.30;90.30;;;;;;4953206;28;20444;-73
2022/09/18 02:41:23;;;;;;;2.53;1.30;;;16.20;90.40;;;;;;4953646;28;20434;-74
2022/09/18 02:44:01;;;;;;;5.53;1.20;;;16.20;90.30;;;;;;4945715;28;20481;-74
2022/09/18 02:46:50;;;;;;;2.23;0.93;;;16.20;90.30;;;;;;4976940;28;20430;-74
2022/09/18 02:49:42;;;;;;;1.60;1.17;;;16.20;90.30;;;;;;4964007;28;20442;-74
2022/09/18 02:52:14;;;;;;;2.17;1.20;;;16.20;90.30;;;;;;4974922;28;20422;-74
2022/09/18 02:55:02;;;;;;;1.67;1.07;;;16.20;90.40;;;;;;4990506;28;20432;-74
2022/09/18 02:57:39;;;;;;;2.57;1.00;;;16.20;90.40;;;;;;4955943;28;20409;-74
2022/09/18 03:00:14;;;;;;;1.13;0.90;;;16.20;90.40;;;;;;4974607;28;20536;-74
2022/09/18 03:02:40;;;;;;;1.93;1.10;;;16.20;90.40;;;;;;4982915;28;20463;-74
2022/09/18 03:05:33;;;;;;;2.47;1.20;;;16.20;90.40;;;;;;4976651;28;20457;-74
2022/09/18 03:08:15;;;;;;;3.00;1.10;;;16.20;90.40;;;;;;4981832;28;20802;-73
2022/09/18 03:10:44;;;;;;;2.93;1.20;;;16.20;90.50;;;;;;4989601;28;20484;-74
2022/09/18 03:13:11;;;;;;;3.03;1.20;;;16.20;90.60;;;;;;4987942;28;20954;-74
2022/09/18 03:15:39;;;;;;;2.53;1.30;;;16.20;90.60;;;;;;4962884;28;20455;-74
2022/09/18 03:18:07;;;;;;;3.50;1.67;;;16.20;90.60;;;;;;4952175;29;20422;-74
2022/09/18 03:20:35;;;;;;;3.60;1.40;;;16.20;90.60;;;;;;4944804;28;20466;-74
2022/09/18 03:23:04;;;;;;;3.50;1.67;;;16.20;90.60;;;;;;4965489;28;20461;-74
2022/09/18 03:25:31;;;;;;;3.73;1.60;;;16.20;90.60;;;;;;4960080;28;20453;-74
2022/09/18 03:27:57;;;;;;;2.17;1.40;;;16.20;90.60;;;;;;4952425;29;20476;-74
2022/09/18 03:30:34;;;;;;;2.03;1.20;;;16.20;90.60;;;;;;4974009;28;20412;-74
2022/09/18 03:33:01;;;;;;;2.50;1.40;;;16.20;90.60;;;;;;4962390;28;20479;-74
2022/09/18 03:35:33;;;;;;;3.13;1.83;;;16.20;90.60;;;;;;4971254;28;20486;-75
2022/09/18 03:37:59;;;;;;;4.10;1.70;;;16.20;90.60;;;;;;4964184;28;20432;-74
2022/09/18 03:40:28;;;;;;;2.70;1.10;;;16.20;90.60;;;;;;4971344;28;20530;-73
2022/09/18 03:43:00;;;;;;;1.83;1.37;;;16.10;90.60;;;;;;4966079;28;20470;-73
2022/09/18 03:45:28;;;;;;;2.23;1.23;;;16.10;90.60;;;;;;4972593;28;20464;-73
2022/09/18 03:47:57;;;;;;;5.53;1.60;;;16.10;90.70;;;;;;4972573;28;20407;-74
2022/09/18 03:50:23;;;;;;;3.70;1.30;;;16.10;90.70;;;;;;4940535;28;20954;-74
2022/09/18 03:52:52;;;;;;;2.87;1.27;;;16.10;90.70;;;;;;4961699;28;20808;-73
2022/09/18 03:55:40;;;;;;;2.40;1.40;;;16.10;90.80;;;;;;4958222;28;20462;-74
2022/09/18 03:58:25;;;;;;;5.93;1.80;;;16.10;90.80;;;;;;4991439;28;20476;-74
2022/09/18 04:01:06;;;;;;;1.93;1.30;;;16.10;90.80;;;;;;4981972;28;20523;-74
2022/09/18 04:03:50;;;;;;;1.90;1.30;;;16.10;90.80;;;;;;4991366;28;20517;-73
2022/09/18 04:06:42;;;;;;;5.03;1.30;;;16.10;90.90;;;;;;4963940;28;20908;-74
2022/09/18 04:09:29;;;;;;;2.00;1.30;;;16.10;90.90;;;;;;4979606;28;20461;-74
2022/09/18 04:11:57;;;;;;;2.20;1.23;;;16.10;90.90;;;;;;4976203;28;20431;-74
2022/09/18 04:14:23;;;;;;;2.03;1.10;;;16.10;90.90;;;;;;4974533;28;20806;-74
2022/09/18 04:16:55;;;;;;;2.43;1.00;;;16.10;90.90;;;;;;4973291;28;20425;-74
2022/09/18 04:19:24;;;;;;;2.70;1.20;;;16.10;90.90;;;;;;5033507;23;20515;-72
2022/09/18 04:21:53;;;;;;;2.23;1.10;;;16.10;90.90;;;;;;4954838;28;20467;-73
2022/09/18 04:24:26;;;;;;;2.43;1.10;;;16.10;90.90;;;;;;4958600;28;20992;-72
2022/09/18 04:26:54;;;;;;;3.50;1.53;;;16.10;91.00;;;;;;4957767;28;20468;-72
2022/09/18 04:29:31;;;;;;;2.03;1.13;;;16.10;90.90;;;;;;4956390;28;20417;-73
2022/09/18 04:32:01;;;;;;;5.17;1.50;;;16.10;91.00;;;;;;4956883;28;20407;-72
2022/09/18 04:34:29;;;;;;;3.43;1.77;;;16.10;91.00;;;;;;4965215;28;20455;-73
2022/09/18 04:36:57;;;;;;;2.30;1.10;;;16.10;91.00;;;;;;4954809;28;20411;-72
2022/09/18 04:39:32;;;;;;;3.83;1.40;;;16.10;91.00;;;;;;4950888;29;20408;-72
2022/09/18 04:42:04;;;;;;;3.00;1.20;;;16.00;91.40;;;;;;4963969;28;20485;-72
2022/09/18 04:44:34;;;;;;;1.93;1.10;;;16.00;91.00;;;;;;4954703;28;20447;-72
2022/09/18 04:47:01;;;;;;;3.53;1.20;;;16.10;91.10;;;;;;4957832;28;20437;-72
2022/09/18 04:49:27;;;;;;;1.50;1.03;;;16.00;91.00;;;;;;4957880;28;20780;-72
2022/09/18 04:51:55;;;;;;;1.60;1.00;;;16.00;91.00;;;;;;4939032;28;20491;-72
2022/09/18 04:54:21;;;;;;;1.20;1.10;;;16.00;91.00;;;;;;4974993;28;20439;-72
2022/09/18 04:56:47;;;;;;;2.00;1.23;;;16.00;91.10;;;;;;4937518;29;20480;-73
2022/09/18 04:59:16;;;;;;;2.00;1.30;;;16.10;91.20;;;;;;4935296;29;20451;-73
2022/09/18 05:01:48;;;;;;;3.60;1.30;;;16.00;91.10;;;;;;4954681;28;20481;-73
2022/09/18 05:04:17;;;;;;;2.23;1.30;;;16.00;91.10;;;;;;4957222;28;20455;-72
2022/09/18 05:07:00;;;;;;;2.40;1.20;;;16.00;91.20;;;;;;4952177;28;20423;-72
2022/09/18 05:09:28;;;;;;;2.13;1.20;;;16.00;91.20;;;;;;4954278;29;20414;-72
2022/09/18 05:11:57;;;;;;;3.57;1.20;;;16.00;91.20;;;;;;4938580;28;20571;-72
2022/09/18 05:14:27;;;;;;;3.33;1.63;;;16.00;91.30;;;;;;4959624;28;20976;-73
2022/09/18 05:16:58;;;;;;;5.23;1.70;;;16.00;91.30;;;;;;4957457;28;20793;-72
2022/09/18 05:19:30;;;;;;;2.20;1.30;;;16.00;91.40;;;;;;4971592;28;20450;-72
2022/09/18 05:22:45;;;;;;;1.80;1.20;;;16.00;91.40;;;;;;4954850;28;20478;-72
2022/09/18 05:25:13;;;;;;;2.40;1.27;;;16.00;91.70;;;;;;4942898;29;20985;-72
2022/09/18 05:27:42;;;;;;;3.13;1.63;;;16.00;91.40;;;;;;4950494;29;21020;-72
2022/09/18 05:30:14;;;;;;;1.80;1.43;;;16.00;91.40;;;;;;4954217;28;20443;-72
2022/09/18 05:33:02;;;;;;;2.90;1.37;;;16.00;91.40;;;;;;4966714;28;20448;-72
2022/09/18 05:35:36;;;;;;;2.13;1.40;;;16.00;91.40;;;;;;4946253;28;20488;-73
2022/09/18 05:38:07;;;;;;;3.03;1.20;;;15.90;91.40;;;;;;4960336;28;20834;-72
2022/09/18 05:40:36;;;;;;;3.10;1.50;;;16.00;91.40;;;;;;4956807;28;20426;-72
2022/09/18 05:43:06;;;;;;;3.20;1.30;;;15.90;91.40;;;;;;4950944;29;20512;-72
2022/09/18 05:45:35;;;;;;;3.73;1.90;;;15.90;91.40;;;;;;4966624;28;20966;-72
2022/09/18 05:48:14;;;;;;;2.63;1.47;;;15.90;91.40;;;;;;4946376;29;20445;-72
2022/09/18 05:50:42;;;;;;;4.53;1.97;;;16.00;91.50;;;;;;4951316;28;20437;-74
2022/09/18 05:53:12;;;;;;;3.30;1.90;;;15.90;91.50;;;;;;4954540;28;20432;-72
2022/09/18 05:56:09;;;;;;;2.80;1.73;;;15.90;91.60;;;;;;4972803;28;20497;-72
2022/09/18 05:58:35;;;;;;;1.83;1.43;;;15.90;91.50;;;;;;4943017;29;20542;-72
2022/09/18 06:01:04;;;;;;;2.07;1.47;;;15.90;91.60;;;;;;4950045;29;21062;-72
2022/09/18 06:03:49;;;;;;;1.73;1.63;;;15.90;91.60;;;;;;4973810;28;20459;-73
2022/09/18 06:06:17;;;;;;;2.63;1.80;;;16.00;91.70;;;;;;4953806;28;20443;-73
2022/09/18 06:08:45;;;;;;;2.00;1.63;;;15.90;91.70;;;;;;4954821;28;20490;-73
2022/09/18 06:11:16;;;;;;;2.10;1.90;;;15.90;91.70;;;;;;4963490;28;20423;-73
2022/09/18 06:13:47;;;;;;;3.83;1.60;;;15.90;91.70;;;;;;4933345;29;21001;-72
2022/09/18 06:16:17;;;;;;;2.30;1.50;;;15.90;91.80;;;;;;4970146;28;20444;-72
2022/09/18 06:18:56;;;;;;;4.33;1.50;;;15.90;91.90;;;;;;4957993;28;20530;-72
2022/09/18 06:21:25;;;;;;;3.13;1.40;;;15.90;91.90;;;;;;4934585;29;20439;-72
2022/09/18 06:23:56;;;;;;;1.70;1.40;;;15.90;91.90;;;;;;4949563;29;20447;-72
2022/09/18 06:26:36;;;;;;;2.00;1.40;;;15.90;92.00;;;;;;4985819;28;20438;-72
2022/09/18 06:29:06;;;;;;;3.43;1.30;;;15.90;92.10;;;;;;4944618;28;20446;-72
2022/09/18 06:31:44;;;;;;;3.40;1.67;;;15.90;92.10;;;;;;4955925;28;20536;-73
2022/09/18 06:34:14;;;;;;;4.70;2.03;;;15.90;92.10;;;;;;4954393;28;20460;-73
2022/09/18 06:37:00;;;;;;;2.47;1.40;;;15.90;92.10;;;;;;4985948;28;20399;-72
2022/09/18 06:39:44;;;;;;;2.93;1.47;;;15.90;92.10;;;;;;4958318;28;20433;-72
2022/09/18 06:42:22;;;;;;;2.40;1.30;;;15.90;92.10;;;;;;4950879;29;20472;-73
2022/09/18 06:45:14;;;;;;;2.00;1.27;;;15.90;92.10;;;;;;4934176;28;20465;-73
2022/09/18 06:48:07;;;;;;;4.90;1.80;;;15.90;92.10;;;;;;4869751;29;20441;-72
2022/09/18 06:50:38;;;;;;;2.03;1.23;;;15.90;92.10;;;;;;4894974;29;20438;-72
2022/09/18 06:53:08;;;;;;;2.50;1.60;;;15.90;92.30;;;;;;4955281;28;20445;-72
2022/09/18 06:55:41;;;;;;;2.13;1.50;;;15.90;92.40;;;;;;4957657;28;20461;-72
2022/09/18 06:58:12;;;;;;;2.80;1.30;;;15.90;92.40;;;;;;4971981;28;20487;-72
2022/09/18 07:00:46;;;;;;;2.17;1.20;;;15.90;92.40;;;;;;4956352;28;20505;-72
2022/09/18 07:03:15;;;;;;;2.93;1.27;;;15.90;92.50;;;;;;4963126;28;20467;-72
2022/09/18 07:06:04;;;;;;;4.07;2.00;;;15.90;92.50;;;;;;4952683;29;20488;-72
2022/09/18 07:08:40;;;;;;;2.43;1.20;;;15.90;92.50;;;;;;4943267;29;20441;-72
2022/09/18 07:11:14;;;;;;;2.57;1.20;;;15.90;92.50;;;;;;4952579;29;20453;-72
2022/09/18 07:13:41;;;;;;;1.87;1.37;;;15.90;92.60;;;;;;4962559;28;20440;-72
2022/09/18 07:16:07;;;;;;;2.70;1.30;;;15.80;92.50;;;;;;4971511;28;20445;-72
2022/09/18 07:18:35;;;;;;;3.87;1.43;;;15.90;92.60;;;;;;4985790;28;20917;-72
2022/09/18 07:21:06;;;;;;;1.73;1.27;;;15.90;92.50;;;;;;4971433;28;20431;-72
2022/09/18 07:23:37;;;;;;;1.40;1.13;;;15.90;92.50;;;;;;4953842;28;20476;-73
2022/09/18 07:26:04;;;;;;;1.87;1.33;;;15.80;92.50;;;;;;4955613;28;20457;-72
2022/09/18 07:28:32;;;;;;;2.40;1.47;;;15.80;92.50;;;;;;4955576;28;20482;-73
2022/09/18 07:31:27;;;;;;;1.80;1.20;;;15.90;92.50;;;;;;4953447;29;20443;-72
2022/09/18 07:33:57;;;;;;;2.77;1.00;;;15.80;92.50;;;;;;4966433;28;20549;-73
2022/09/18 07:36:35;;;;;;;2.10;1.17;;;15.80;92.50;;;;;;4952252;28;20413;-72
2022/09/18 07:39:42;;;;;;;3.37;1.30;;;15.90;92.60;;;;;;4951642;29;20461;-72
2022/09/18 07:42:30;;;;;;;2.10;1.33;;;15.80;92.60;;;;;;4974758;28;20465;-72
2022/09/18 07:44:56;;;;;;;1.80;1.20;;;15.80;92.60;;;;;;4973031;28;20547;-73
2022/09/18 07:47:26;;;;;;;3.43;1.30;;;15.80;92.70;;;;;;4959498;28;20432;-72
2022/09/18 07:49:53;;;;;;;1.27;1.10;;;15.80;92.70;;;;;;4957483;28;20425;-73
2022/09/18 07:52:20;;;;;;;3.30;1.30;;;15.80;92.70;;;;;;4958807;28;20426;-72
2022/09/18 07:54:52;;;;;;;1.97;1.33;;;15.80;92.80;;;;;;4974760;28;20450;-72
2022/09/18 07:57:33;;;;;;;2.10;1.23;;;15.80;92.80;;;;;;4954039;29;20788;-72
2022/09/18 08:00:32;;;;;;;1.50;1.00;;;15.80;92.90;;;;;;4974550;28;20780;-72
2022/09/18 08:03:08;;;;;;;1.63;1.17;;;15.80;92.90;;;;;;4942836;28;21093;-73
2022/09/18 08:05:51;;;;;;;3.17;1.50;;;15.80;92.90;;;;;;4920770;28;20476;-72
2022/09/18 08:08:21;;;;;;;2.10;1.07;;;15.80;92.90;;;;;;4944010;28;20866;-72
2022/09/18 08:11:07;;;;;;;1.50;1.03;;;15.80;92.90;;;;;;4937493;29;20490;-72
2022/09/18 08:13:48;;;;;;;1.93;1.00;;;15.80;93.00;;;;;;4952439;28;20549;-72
2022/09/18 08:16:31;;;;;;;1.90;1.03;;;15.80;93.00;;;;;;4973825;28;20762;-73
2022/09/18 08:19:15;;;;;;;2.23;1.07;;;15.80;93.00;;;;;;4971093;28;20446;-72
2022/09/18 08:21:51;;;;;;;3.80;1.60;;;15.80;93.00;;;;;;4967199;28;20978;-73
2022/09/18 08:24:19;;;;;;;3.57;1.40;;;15.80;93.10;;;;;;4958598;28;21008;-72
2022/09/18 08:26:45;;;;;;;4.10;1.40;;;15.80;93.20;;;;;;4943425;29;20416;-72
2022/09/18 08:29:17;;;;;;;2.90;1.20;;;15.80;93.20;;;;;;4961857;28;20447;-73
2022/09/18 08:32:16;;;;;;;2.70;1.13;;;15.80;93.10;;;;;;4942750;29;20821;-74
2022/09/18 08:34:48;;;;;;;2.00;1.03;;;15.80;93.20;;;;;;4968912;28;20447;-72
2022/09/18 08:37:22;;;;;;;2.20;1.10;;;15.80;93.30;;;;;;4956285;28;20440;-72
2022/09/18 08:40:23;;;;;;;2.20;1.37;;;15.90;93.30;;;;;;4965788;28;20451;-73
2022/09/18 08:43:16;;;;;;;2.50;1.37;;;15.90;93.40;;;;;;4923794;29;21097;-72
2022/09/18 08:46:03;;;;;;;2.60;1.20;;;15.80;93.40;;;;;;4955913;28;20459;-72
2022/09/18 08:48:55;;;;;;;3.73;1.27;;;15.80;93.40;;;;;;4957647;28;20446;-72
2022/09/18 08:51:35;;;;;;;1.60;1.13;;;15.80;93.50;;;;;;4943804;29;20428;-72
2022/09/18 08:54:28;;;;;;;4.70;1.33;;;15.80;93.90;;;;;;4958552;28;20474;-72
2022/09/18 08:57:29;;;;;;;3.67;1.67;;;15.80;93.60;;;;;;4985097;28;20429;-72
2022/09/18 09:00:08;;;;;;;1.70;1.30;;;15.80;93.50;;;;;;4954279;29;20442;-72
2022/09/18 09:02:44;;;;;;;1.70;1.00;;;15.80;93.60;;;;;;4972800;28;20456;-72
2022/09/18 09:05:22;;;;;;;1.50;1.40;;;15.80;93.60;;;;;;4971893;28;21026;-72
2022/09/18 09:08:24;;;;;;;3.20;1.40;;;15.80;93.70;;;;;;4942420;28;20529;-72
2022/09/18 09:10:56;;;;;;;2.03;1.40;;;15.80;93.70;;;;;;4973469;28;20445;-73
2022/09/18 09:13:26;;;;;;;2.37;1.30;;;15.80;93.70;;;;;;4944621;29;20440;-72
2022/09/18 09:16:02;;;;;;;2.77;1.87;;;15.80;93.70;;;;;;4935008;29;20496;-72
2022/09/18 09:18:28;;;;;;;4.80;1.80;;;15.80;93.60;;;;;;4956866;28;20464;-72
2022/09/18 09:20:56;;;;;;;1.43;1.33;;;15.80;93.70;;;;;;4968014;28;20794;-73
2022/09/18 09:23:55;;;;;;;2.03;1.40;;;15.90;93.80;;;;;;4921993;29;20981;-72
2022/09/18 09:26:55;;;;;;;4.20;1.50;;;15.90;94.00;;;;;;4955733;28;20833;-72
2022/09/18 09:30:14;;;;;;;2.97;1.70;;;15.90;94.10;;;;;;4934989;29;20973;-72
2022/09/18 09:33:26;;;;;;;3.30;1.97;;;15.90;94.20;;;;;;4935872;29;20412;-72
2022/09/18 09:36:23;;;;;;;3.73;1.80;;;15.90;94.20;;;;;;4947209;28;21030;-72
2022/09/18 09:39:21;;;;;;;2.37;1.63;;;15.90;94.30;;;;;;4971915;28;20410;-72
2022/09/18 09:42:24;;;;;;;3.60;1.90;;;15.90;94.30;;;;;;4937627;29;20466;-72
2022/09/18 09:45:02;;;;;;;4.27;2.13;;;15.90;94.30;;;;;;4918902;29;20851;-73
2022/09/18 09:48:02;;;;;;;3.70;2.73;;;15.90;94.40;;;;;;4971801;28;20439;-72
2022/09/18 09:50:52;;;;;;;2.67;1.77;;;15.90;94.40;;;;;;4950661;28;20447;-72
2022/09/18 09:53:23;;;;;;;3.70;1.90;;;15.90;94.50;;;;;;4946073;28;20517;-73
2022/09/18 09:56:27;;;;;;;2.80;1.73;;;15.90;94.60;;;;;;4936346;29;20495;-72
2022/09/18 09:58:59;;;;;;;2.40;2.20;;;15.90;94.60;;;;;;4953220;28;20783;-72
2022/09/18 10:01:33;;;;;;;1.93;1.80;;;15.90;94.60;;;;;;4955782;28;20434;-72
2022/09/18 10:04:35;;;;;;;4.10;1.80;;;15.90;94.70;;;;;;4958658;28;20427;-73
2022/09/18 10:07:36;;;;;;;4.93;2.10;;;15.90;94.70;;;;;;4953167;29;20402;-73
2022/09/18 10:10:22;;;;;;;3.97;1.67;;;15.90;94.70;;;;;;4947737;28;20486;-73
2022/09/18 10:12:54;;;;;;;2.20;1.77;;;15.90;94.80;;;;;;4937851;28;20530;-73
2022/09/18 10:15:37;;;;;;;3.40;1.93;;;15.90;94.80;;;;;;4952852;29;20580;-72
2022/09/18 10:18:16;;;;;;;2.37;1.90;;;16.00;94.90;;;;;;4941427;28;20458;-72
2022/09/18 10:20:45;;;;;;;2.63;2.07;;;16.00;94.90;;;;;;4956663;28;20458;-72
2022/09/18 10:23:19;;;;;;;3.13;1.50;;;16.00;94.90;;;;;;4939911;29;20875;-72
2022/09/18 10:25:54;;;;;;;3.27;1.87;;;16.00;94.90;;;;;;4949574;29;20951;-72
2022/09/18 10:28:28;;;;;;;2.27;1.60;;;16.00;95.20;;;;;;4966675;28;20451;-72
2022/09/18 10:31:11;;;;;;;5.00;1.60;;;16.00;94.90;;;;;;4956215;28;20461;-73
2022/09/18 10:33:44;;;;;;;1.87;1.70;;;16.00;94.90;;;;;;4954546;28;20435;-73
2022/09/18 10:36:27;;;;;;;3.60;1.90;;;16.00;94.90;;;;;;4942116;29;20462;-72
2022/09/18 10:39:30;;;;;;;2.53;1.60;;;16.00;94.90;;;;;;4938908;28;20439;-72
2022/09/18 10:42:01;;;;;;;3.43;2.30;;;16.00;94.80;;;;;;4942547;29;20479;-72
2022/09/18 10:44:32;;;;;;;1.90;1.70;;;16.10;94.80;;;;;;4936816;29;20445;-73
2022/09/18 10:47:11;;;;;;;2.47;1.70;;;16.10;94.90;;;;;;4952928;28;20421;-72
2022/09/18 10:49:52;;;;;;;3.43;1.60;;;16.10;94.90;;;;;;4959136;28;20922;-73
2022/09/18 10:52:33;;;;;;;2.73;1.50;;;16.10;95.00;;;;;;4967516;28;20423;-72
2022/09/18 10:55:07;;;;;;;2.53;1.73;;;16.10;95.00;;;;;;4937426;29;20502;-72
2022/09/18 10:58:16;;;;;;;2.23;1.40;;;16.10;95.10;;;;;;4955189;28;20967;-72
2022/09/18 11:01:20;;;;;;;2.40;1.60;;;16.10;95.10;;;;;;4969984;28;20645;-73
2022/09/18 11:04:02;;;;;;;2.97;1.50;;;16.10;95.20;;;;;;4965502;28;20440;-72
2022/09/18 11:06:36;;;;;;;2.10;1.70;;;16.10;95.20;;;;;;4933472;29;20844;-72
2022/09/18 11:09:19;;;;;;;2.77;2.00;;;16.10;95.20;;;;;;4957915;28;20509;-73
2022/09/18 11:11:50;;;;;;;2.03;1.40;;;16.10;95.20;;;;;;4956075;28;20433;-72
2022/09/18 11:14:31;;;;;;;8.47;1.70;;;16.10;95.30;;;;;;4940859;29;20453;-72
2022/09/18 11:17:25;;;;;;;3.20;1.57;;;16.10;95.20;;;;;;4937398;29;20496;-72
2022/09/18 11:19:54;;;;;;;2.07;1.87;;;16.10;95.20;;;;;;4983304;28;20796;-72
2022/09/18 11:22:43;;;;;;;4.20;1.70;;;16.10;95.10;;;;;;4957319;28;20497;-72
2022/09/18 11:25:28;;;;;;;2.30;1.27;;;16.10;95.10;;;;;;4975446;28;20445;-73
2022/09/18 11:28:20;;;;;;;1.60;1.40;;;16.10;95.00;;;;;;4952181;29;20465;-73
2022/09/18 11:31:10;;;;;;;3.40;1.77;;;16.10;95.00;;;;;;4969586;28;20428;-73
2022/09/18 11:33:46;;;;;;;2.70;1.50;;;16.10;95.00;;;;;;4948728;29;20460;-72
2022/09/18 11:36:30;;;;;;;3.30;1.60;;;16.10;95.00;;;;;;4952747;29;20443;-72
2022/09/18 11:39:00;;;;;;;3.70;1.83;;;16.10;95.00;;;;;;4955814;28;20801;-72
2022/09/18 11:41:33;;;;;;;2.40;1.73;;;16.10;94.90;;;;;;4936920;28;20445;-72
2022/09/18 11:44:30;;;;;;;3.30;1.90;;;16.10;94.90;;;;;;4949448;28;20467;-72
2022/09/18 11:47:10;;;;;;;2.80;1.73;;;16.10;95.00;;;;;;4952822;28;20610;-72
2022/09/18 11:49:46;;;;;;;2.90;1.90;;;16.10;95.00;;;;;;4959944;28;20943;-72
2022/09/18 11:52:15;;;;;;;3.83;2.20;;;16.10;95.00;;;;;;4970942;28;20902;-72
2022/09/18 11:54:55;;;;;;;3.30;2.00;;;16.10;95.10;;;;;;4940982;28;20448;-72
2022/09/18 11:58:20;;;;;;;2.60;1.60;;;16.10;95.10;;;;;;4958983;28;20446;-72
2022/09/18 12:01:12;;;;;;;3.00;1.70;;;16.10;95.10;;;;;;4906023;29;20527;-72
2022/09/18 12:04:16;;;;;;;2.37;1.63;;;16.10;95.10;;;;;;4934823;28;20477;-73
2022/09/18 12:06:54;;;;;;;2.53;1.63;;;16.10;95.10;;;;;;4930747;29;20445;-72
2022/09/18 12:09:35;;;;;;;1.77;1.40;;;16.10;95.10;;;;;;4939769;28;20404;-73
2022/09/18 12:12:20;;;;;;;1.97;1.40;;;16.10;95.10;;;;;;4950126;29;20976;-72
2022/09/18 12:15:19;;;;;;;1.53;1.20;;;16.10;95.10;;;;;;4946407;28;20546;-72
2022/09/18 12:18:00;;;;;;;2.07;1.50;;;16.10;95.10;;;;;;4974335;28;20407;-72
2022/09/18 12:20:36;;;;;;;2.00;1.40;;;16.10;95.10;;;;;;4940628;28;20537;-72
2022/09/18 12:23:14;;;;;;;1.50;1.20;;;16.10;95.10;;;;;;4973032;28;20457;-72
2022/09/18 12:26:18;;;;;;;3.03;1.40;;;16.10;95.10;;;;;;4955953;28;20458;-73
2022/09/18 12:29:13;;;;;;;2.27;1.10;;;16.10;95.10;;;;;;5014181;23;20512;-72
2022/09/18 12:32:05;;;;;;;2.13;1.27;;;16.10;95.10;;;;;;4942259;28;20514;-72
2022/09/18 12:34:51;;;;;;;3.10;1.40;;;16.10;95.10;;;;;;4950924;28;20532;-71
2022/09/18 12:37:59;;;;;;;2.40;1.60;;;16.10;95.10;;;;;;4940355;28;20451;-72
2022/09/18 12:40:34;;;;;;;1.43;1.10;;;16.10;95.10;;;;;;4911644;28;20456;-72
2022/09/18 12:43:14;;;;;;;3.57;1.43;;;16.10;95.10;;;;;;4958042;28;20495;-72
2022/09/18 12:46:24;;;;;;;1.20;1.10;;;16.10;95.10;;;;;;4958272;28;20458;-72
2022/09/18 12:48:56;;;;;;;2.17;1.30;;;16.10;95.10;;;;;;4955058;28;20466;-72
2022/09/18 12:51:42;;;;;;;2.17;1.03;;;16.10;95.10;;;;;;4975366;28;20411;-72
2022/09/18 12:54:20;;;;;;;1.60;1.13;;;16.10;95.10;;;;;;4957926;28;20449;-72
2022/09/18 12:56:59;;;;;;;1.97;1.00;;;16.10;95.10;;;;;;4959074;28;20492;-72
2022/09/18 13:00:03;;;;;;;1.77;1.00;;;16.10;95.10;;;;;;4960415;28;20461;-72
2022/09/18 13:02:38;;;;;;;1.60;1.00;;;16.10;95.10;;;;;;4957780;28;20458;-72
2022/09/18 13:05:10;;;;;;;1.80;0.97;;;16.10;95.10;;;;;;4939913;28;20979;-72
2022/09/18 13:07:59;;;;;;;2.00;1.07;;;16.10;95.10;;;;;;4967471;28;20845;-72
2022/09/18 13:10:33;;;;;;;1.37;1.00;;;16.10;95.10;;;;;;4954779;28;20507;-72
2022/09/18 13:13:31;;;;;;;2.40;1.47;;;16.10;95.10;;;;;;4957376;28;20958;-72
2022/09/18 13:16:16;;;;;;;1.43;1.23;;;16.10;95.10;;;;;;4957337;28;20586;-72
2022/09/18 13:19:32;;;;;;;1.43;0.97;;;16.10;95.10;;;;;;4957288;28;20434;-72
2022/09/18 13:22:08;;;;;;;1.63;1.10;;;16.10;95.10;;;;;;4868216;29;20481;-72
2022/09/18 13:24:35;;;;;;;2.23;1.03;;;16.10;95.10;;;;;;4955537;28;20441;-72
2022/09/18 13:27:09;;;;;;;4.00;1.20;;;16.10;95.10;;;;;;4956885;28;20489;-72
2022/09/18 13:29:52;;;;;;;2.27;1.03;;;16.10;95.10;;;;;;4940004;28;20430;-72
2022/09/18 13:32:30;;;;;;;1.57;0.87;;;16.10;95.10;;;;;;4942843;28;20439;-72
2022/09/18 13:35:02;;;;;;;1.70;1.20;;;16.10;95.00;;;;;;4973451;28;20457;-72
2022/09/18 13:37:31;;;;;;;2.60;1.10;;;16.10;95.10;;;;;;4940974;28;20201;-72
2022/09/18 13:40:07;;;;;;;2.67;1.10;;;16.10;95.10;;;;;;4957123;28;20434;-72
2022/09/18 13:42:41;;;;;;;1.23;1.07;;;16.10;95.10;;;;;;4956659;28;20472;-72
2022/09/18 13:45:27;;;;;;;1.53;0.90;;;16.10;95.10;;;;;;4974504;28;20482;-72
2022/09/18 13:48:29;;;;;;;2.20;1.10;;;16.10;95.10;;;;;;4940990;28;20430;-72